sensor_id;sensor_type;location;lat;lon;timestamp;temperature;humidity
7218;DHT22;3650;53.580;10.094;2023-05-10T00:01:20;17.60;24.70
7218;DHT22;3650;53.580;10.094;2023-05-10T00:03:47;17.50;24.80
7218;DHT22;3650;53.580;10.094;2023-05-10T00:06:13;17.50;24.90
7218;DHT22;3650;53.580;10.094;2023-05-10T00:08:40;17.50;25.10
7218;DHT22;3650;53.580;10.094;2023-05-10T00:11:07;17.50;25.20
7218;DHT22;3650;53.580;10.094;2023-05-10T00:13:35;17.50;25.20
7218;DHT22;3650;53.580;10.094;2023-05-10T00:16:02;17.50;25.40
7218;DHT22;3650;53.580;10.094;2023-05-10T00:18:29;17.40;25.40
7218;DHT22;3650;53.580;10.094;2023-05-10T00:20:55;17.40;25.60
7218;DHT22;3650;53.580;10.094;2023-05-10T00:23:22;17.40;25.60
7218;DHT22;3650;53.580;10.094;2023-05-10T00:25:49;17.40;25.60
7218;DHT22;3650;53.580;10.094;2023-05-10T00:28:16;17.40;25.70
7218;DHT22;3650;53.580;10.094;2023-05-10T00:30:44;17.40;25.70
7218;DHT22;3650;53.580;10.094;2023-05-10T00:33:10;17.30;25.70
7218;DHT22;3650;53.580;10.094;2023-05-10T00:35:38;17.30;25.70
7218;DHT22;3650;53.580;10.094;2023-05-10T00:38:04;17.30;25.90
7218;DHT22;3650;53.580;10.094;2023-05-10T00:40:31;17.30;26.00
7218;DHT22;3650;53.580;10.094;2023-05-10T00:42:58;17.30;26.00
7218;DHT22;3650;53.580;10.094;2023-05-10T00:45:26;17.30;26.10
7218;DHT22;3650;53.580;10.094;2023-05-10T00:47:54;17.20;26.20
7218;DHT22;3650;53.580;10.094;2023-05-10T00:50:21;17.20;26.10
7218;DHT22;3650;53.580;10.094;2023-05-10T00:52:48;17.20;26.20
7218;DHT22;3650;53.580;10.094;2023-05-10T00:55:15;17.20;26.40
7218;DHT22;3650;53.580;10.094;2023-05-10T00:57:42;17.10;26.50
7218;DHT22;3650;53.580;10.094;2023-05-10T01:00:10;17.10;26.80
7218;DHT22;3650;53.580;10.094;2023-05-10T01:02:38;17.10;26.60
7218;DHT22;3650;53.580;10.094;2023-05-10T01:05:07;17.10;26.50
7218;DHT22;3650;53.580;10.094;2023-05-10T01:07:34;17.10;26.80
7218;DHT22;3650;53.580;10.094;2023-05-10T01:10:01;17.00;26.80
7218;DHT22;3650;53.580;10.094;2023-05-10T01:12:27;17.00;26.90
7218;DHT22;3650;53.580;10.094;2023-05-10T01:14:55;17.00;27.20
7218;DHT22;3650;53.580;10.094;2023-05-10T01:17:22;16.90;27.20
7218;DHT22;3650;53.580;10.094;2023-05-10T01:19:49;16.90;28.20
7218;DHT22;3650;53.580;10.094;2023-05-10T01:22:32;16.90;27.20
7218;DHT22;3650;53.580;10.094;2023-05-10T01:25:22;16.90;27.20
7218;DHT22;3650;53.580;10.094;2023-05-10T01:28:13;16.90;27.30
7218;DHT22;3650;53.580;10.094;2023-05-10T01:31:02;16.80;27.50
7218;DHT22;3650;53.580;10.094;2023-05-10T01:33:35;16.80;27.50
7218;DHT22;3650;53.580;10.094;2023-05-10T01:36:05;16.80;27.50
7218;DHT22;3650;53.580;10.094;2023-05-10T01:38:40;16.70;27.60
7218;DHT22;3650;53.580;10.094;2023-05-10T01:41:13;16.70;28.00
7218;DHT22;3650;53.580;10.094;2023-05-10T01:43:46;16.70;28.20
7218;DHT22;3650;53.580;10.094;2023-05-10T01:46:17;16.70;28.20
7218;DHT22;3650;53.580;10.094;2023-05-10T01:48:52;16.60;28.30
7218;DHT22;3650;53.580;10.094;2023-05-10T01:51:23;16.60;28.20
7218;DHT22;3650;53.580;10.094;2023-05-10T01:53:54;16.60;28.30
7218;DHT22;3650;53.580;10.094;2023-05-10T01:56:25;16.60;28.60
7218;DHT22;3650;53.580;10.094;2023-05-10T01:58:53;16.60;28.70
7218;DHT22;3650;53.580;10.094;2023-05-10T02:01:21;16.60;28.60
7218;DHT22;3650;53.580;10.094;2023-05-10T02:03:50;16.50;28.50
7218;DHT22;3650;53.580;10.094;2023-05-10T02:06:18;16.50;28.70
7218;DHT22;3650;53.580;10.094;2023-05-10T02:08:47;16.50;28.70
7218;DHT22;3650;53.580;10.094;2023-05-10T02:11:17;16.50;28.80
7218;DHT22;3650;53.580;10.094;2023-05-10T02:13:47;16.50;28.90
7218;DHT22;3650;53.580;10.094;2023-05-10T02:16:16;16.40;28.70
7218;DHT22;3650;53.580;10.094;2023-05-10T02:18:43;16.40;28.80
7218;DHT22;3650;53.580;10.094;2023-05-10T02:21:14;16.40;28.90
7218;DHT22;3650;53.580;10.094;2023-05-10T02:23:43;16.40;29.00
7218;DHT22;3650;53.580;10.094;2023-05-10T02:26:10;16.40;29.00
7218;DHT22;3650;53.580;10.094;2023-05-10T02:28:40;16.30;29.00
7218;DHT22;3650;53.580;10.094;2023-05-10T02:31:08;16.30;29.50
7218;DHT22;3650;53.580;10.094;2023-05-10T02:33:37;16.30;29.30
7218;DHT22;3650;53.580;10.094;2023-05-10T02:36:06;16.30;29.40
7218;DHT22;3650;53.580;10.094;2023-05-10T02:38:36;16.30;29.50
7218;DHT22;3650;53.580;10.094;2023-05-10T02:41:05;16.20;29.60
7218;DHT22;3650;53.580;10.094;2023-05-10T02:43:35;16.20;29.80
7218;DHT22;3650;53.580;10.094;2023-05-10T02:46:02;16.10;29.90
7218;DHT22;3650;53.580;10.094;2023-05-10T02:48:29;16.20;30.20
7218;DHT22;3650;53.580;10.094;2023-05-10T02:51:00;16.10;30.20
7218;DHT22;3650;53.580;10.094;2023-05-10T02:53:31;16.10;30.20
7218;DHT22;3650;53.580;10.094;2023-05-10T02:56:04;16.10;30.10
7218;DHT22;3650;53.580;10.094;2023-05-10T02:58:32;16.00;30.00
7218;DHT22;3650;53.580;10.094;2023-05-10T03:00:59;16.00;30.00
7218;DHT22;3650;53.580;10.094;2023-05-10T03:03:26;16.00;30.00
7218;DHT22;3650;53.580;10.094;2023-05-10T03:05:53;16.00;30.00
7218;DHT22;3650;53.580;10.094;2023-05-10T03:08:21;16.00;30.00
7218;DHT22;3650;53.580;10.094;2023-05-10T03:10:55;16.00;30.00
7218;DHT22;3650;53.580;10.094;2023-05-10T03:13:31;15.90;30.20
7218;DHT22;3650;53.580;10.094;2023-05-10T03:16:07;15.90;30.40
7218;DHT22;3650;53.580;10.094;2023-05-10T03:18:42;15.90;30.60
7218;DHT22;3650;53.580;10.094;2023-05-10T03:21:11;15.90;30.70
7218;DHT22;3650;53.580;10.094;2023-05-10T03:23:42;15.80;30.90
7218;DHT22;3650;53.580;10.094;2023-05-10T03:26:10;15.80;30.90
7218;DHT22;3650;53.580;10.094;2023-05-10T03:28:39;15.80;31.20
7218;DHT22;3650;53.580;10.094;2023-05-10T03:31:07;15.80;31.10
7218;DHT22;3650;53.580;10.094;2023-05-10T03:33:34;15.80;31.20
7218;DHT22;3650;53.580;10.094;2023-05-10T03:36:01;15.80;31.30
7218;DHT22;3650;53.580;10.094;2023-05-10T03:38:27;15.80;31.40
7218;DHT22;3650;53.580;10.094;2023-05-10T03:40:55;15.70;31.60
7218;DHT22;3650;53.580;10.094;2023-05-10T03:43:22;15.80;31.70
7218;DHT22;3650;53.580;10.094;2023-05-10T03:45:50;15.70;31.50
7218;DHT22;3650;53.580;10.094;2023-05-10T03:48:16;15.70;31.60
7218;DHT22;3650;53.580;10.094;2023-05-10T03:50:43;15.70;31.90
7218;DHT22;3650;53.580;10.094;2023-05-10T03:53:10;15.70;31.80
7218;DHT22;3650;53.580;10.094;2023-05-10T03:55:37;15.70;31.80
7218;DHT22;3650;53.580;10.094;2023-05-10T03:58:04;15.70;32.00
7218;DHT22;3650;53.580;10.094;2023-05-10T04:00:31;15.70;32.00
7218;DHT22;3650;53.580;10.094;2023-05-10T04:02:59;15.70;32.10
7218;DHT22;3650;53.580;10.094;2023-05-10T04:05:26;15.70;32.10
7218;DHT22;3650;53.580;10.094;2023-05-10T04:07:53;15.70;32.30
7218;DHT22;3650;53.580;10.094;2023-05-10T04:10:20;15.70;32.60
7218;DHT22;3650;53.580;10.094;2023-05-10T04:12:46;15.70;32.50
7218;DHT22;3650;53.580;10.094;2023-05-10T04:15:14;15.70;32.50
7218;DHT22;3650;53.580;10.094;2023-05-10T04:17:40;15.70;32.10
7218;DHT22;3650;53.580;10.094;2023-05-10T04:20:10;15.70;32.30
7218;DHT22;3650;53.580;10.094;2023-05-10T04:22:37;15.70;32.30
7218;DHT22;3650;53.580;10.094;2023-05-10T04:25:06;15.70;32.20
7218;DHT22;3650;53.580;10.094;2023-05-10T04:27:33;15.70;32.60
7218;DHT22;3650;53.580;10.094;2023-05-10T04:30:00;15.70;33.00
7218;DHT22;3650;53.580;10.094;2023-05-10T04:32:27;15.70;32.80
7218;DHT22;3650;53.580;10.094;2023-05-10T04:34:53;15.70;32.60
7218;DHT22;3650;53.580;10.094;2023-05-10T04:37:21;15.70;32.70
7218;DHT22;3650;53.580;10.094;2023-05-10T04:39:48;15.70;32.80
7218;DHT22;3650;53.580;10.094;2023-05-10T04:42:15;15.70;32.50
7218;DHT22;3650;53.580;10.094;2023-05-10T04:44:42;15.70;32.80
7218;DHT22;3650;53.580;10.094;2023-05-10T04:47:09;15.70;32.80
7218;DHT22;3650;53.580;10.094;2023-05-10T04:49:37;15.70;33.10
7218;DHT22;3650;53.580;10.094;2023-05-10T04:52:04;15.70;33.10
7218;DHT22;3650;53.580;10.094;2023-05-10T04:54:32;15.60;33.30
7218;DHT22;3650;53.580;10.094;2023-05-10T04:56:59;15.60;33.30
7218;DHT22;3650;53.580;10.094;2023-05-10T04:59:27;15.60;33.30
7218;DHT22;3650;53.580;10.094;2023-05-10T05:01:53;15.60;33.40
7218;DHT22;3650;53.580;10.094;2023-05-10T05:04:20;15.60;33.70
7218;DHT22;3650;53.580;10.094;2023-05-10T05:06:48;15.60;33.70
7218;DHT22;3650;53.580;10.094;2023-05-10T05:09:15;15.60;33.50
7218;DHT22;3650;53.580;10.094;2023-05-10T05:11:43;15.70;33.60
7218;DHT22;3650;53.580;10.094;2023-05-10T05:14:10;15.70;33.70
7218;DHT22;3650;53.580;10.094;2023-05-10T05:16:37;15.70;33.60
7218;DHT22;3650;53.580;10.094;2023-05-10T05:19:03;15.70;33.50
7218;DHT22;3650;53.580;10.094;2023-05-10T05:21:30;15.70;33.40
7218;DHT22;3650;53.580;10.094;2023-05-10T05:23:58;15.70;33.40
7218;DHT22;3650;53.580;10.094;2023-05-10T05:26:26;15.70;33.50
7218;DHT22;3650;53.580;10.094;2023-05-10T05:28:54;15.80;34.00
7218;DHT22;3650;53.580;10.094;2023-05-10T05:31:21;15.80;33.30
7218;DHT22;3650;53.580;10.094;2023-05-10T05:33:47;15.80;33.40
7218;DHT22;3650;53.580;10.094;2023-05-10T05:36:14;15.80;33.20
7218;DHT22;3650;53.580;10.094;2023-05-10T05:38:41;15.80;33.10
7218;DHT22;3650;53.580;10.094;2023-05-10T05:41:08;15.90;33.30
7218;DHT22;3650;53.580;10.094;2023-05-10T05:43:35;15.90;33.30
7218;DHT22;3650;53.580;10.094;2023-05-10T05:46:03;15.90;33.20
7218;DHT22;3650;53.580;10.094;2023-05-10T05:48:30;16.00;33.20
7218;DHT22;3650;53.580;10.094;2023-05-10T05:50:57;16.00;33.30
7218;DHT22;3650;53.580;10.094;2023-05-10T05:53:24;16.00;33.30
7218;DHT22;3650;53.580;10.094;2023-05-10T05:55:51;16.00;33.10
7218;DHT22;3650;53.580;10.094;2023-05-10T05:58:18;16.00;32.90
7218;DHT22;3650;53.580;10.094;2023-05-10T06:00:45;16.10;33.10
7218;DHT22;3650;53.580;10.094;2023-05-10T06:03:13;16.10;33.30
7218;DHT22;3650;53.580;10.094;2023-05-10T06:05:40;16.10;33.30
7218;DHT22;3650;53.580;10.094;2023-05-10T06:08:07;16.20;33.00
7218;DHT22;3650;53.580;10.094;2023-05-10T06:10:34;16.20;33.00
7218;DHT22;3650;53.580;10.094;2023-05-10T06:13:01;16.20;33.00
7218;DHT22;3650;53.580;10.094;2023-05-10T06:15:27;16.30;33.10
7218;DHT22;3650;53.580;10.094;2023-05-10T06:17:54;16.30;32.70
7218;DHT22;3650;53.580;10.094;2023-05-10T06:20:22;16.30;32.80
7218;DHT22;3650;53.580;10.094;2023-05-10T06:22:49;16.30;32.80
7218;DHT22;3650;53.580;10.094;2023-05-10T06:25:16;16.40;33.10
7218;DHT22;3650;53.580;10.094;2023-05-10T06:27:43;16.40;33.40
7218;DHT22;3650;53.580;10.094;2023-05-10T06:30:12;16.40;33.30
7218;DHT22;3650;53.580;10.094;2023-05-10T06:32:41;16.50;32.70
7218;DHT22;3650;53.580;10.094;2023-05-10T06:35:09;16.50;32.10
7218;DHT22;3650;53.580;10.094;2023-05-10T06:37:37;16.50;32.20
7218;DHT22;3650;53.580;10.094;2023-05-10T06:40:05;16.60;32.30
7218;DHT22;3650;53.580;10.094;2023-05-10T06:42:32;16.60;32.30
7218;DHT22;3650;53.580;10.094;2023-05-10T06:44:59;16.60;32.20
7218;DHT22;3650;53.580;10.094;2023-05-10T06:47:26;16.70;32.30
7218;DHT22;3650;53.580;10.094;2023-05-10T06:49:53;16.70;32.30
7218;DHT22;3650;53.580;10.094;2023-05-10T06:52:20;16.70;32.30
7218;DHT22;3650;53.580;10.094;2023-05-10T06:54:48;16.70;32.20
7218;DHT22;3650;53.580;10.094;2023-05-10T06:57:15;16.80;32.10
7218;DHT22;3650;53.580;10.094;2023-05-10T06:59:41;16.80;32.00
7218;DHT22;3650;53.580;10.094;2023-05-10T07:02:08;16.80;32.10
7218;DHT22;3650;53.580;10.094;2023-05-10T07:04:35;16.90;32.70
7218;DHT22;3650;53.580;10.094;2023-05-10T07:07:02;16.90;32.70
7218;DHT22;3650;53.580;10.094;2023-05-10T07:09:29;16.90;32.50
7218;DHT22;3650;53.580;10.094;2023-05-10T07:11:57;16.90;32.30
7218;DHT22;3650;53.580;10.094;2023-05-10T07:14:24;17.00;32.30
7218;DHT22;3650;53.580;10.094;2023-05-10T07:16:50;17.00;32.00
7218;DHT22;3650;53.580;10.094;2023-05-10T07:19:17;17.00;31.30
7218;DHT22;3650;53.580;10.094;2023-05-10T07:21:44;17.00;31.30
7218;DHT22;3650;53.580;10.094;2023-05-10T07:24:10;17.10;31.60
7218;DHT22;3650;53.580;10.094;2023-05-10T07:26:37;17.10;31.70
7218;DHT22;3650;53.580;10.094;2023-05-10T07:29:05;17.10;31.60
7218;DHT22;3650;53.580;10.094;2023-05-10T07:31:32;17.10;31.80
7218;DHT22;3650;53.580;10.094;2023-05-10T07:33:59;17.10;32.10
7218;DHT22;3650;53.580;10.094;2023-05-10T07:36:25;17.10;31.90
7218;DHT22;3650;53.580;10.094;2023-05-10T07:38:53;17.10;32.20
7218;DHT22;3650;53.580;10.094;2023-05-10T07:41:20;17.20;32.10
7218;DHT22;3650;53.580;10.094;2023-05-10T07:43:47;17.20;32.20
7218;DHT22;3650;53.580;10.094;2023-05-10T07:46:15;17.20;32.90
7218;DHT22;3650;53.580;10.094;2023-05-10T07:48:42;17.20;32.80
7218;DHT22;3650;53.580;10.094;2023-05-10T07:51:09;17.20;32.50
7218;DHT22;3650;53.580;10.094;2023-05-10T07:53:36;17.30;32.40
7218;DHT22;3650;53.580;10.094;2023-05-10T07:56:22;17.30;32.30
7218;DHT22;3650;53.580;10.094;2023-05-10T07:58:50;17.30;32.60
7218;DHT22;3650;53.580;10.094;2023-05-10T08:01:19;17.30;32.40
7218;DHT22;3650;53.580;10.094;2023-05-10T08:03:46;17.30;32.40
7218;DHT22;3650;53.580;10.094;2023-05-10T08:06:13;17.40;33.10
7218;DHT22;3650;53.580;10.094;2023-05-10T08:08:41;17.40;33.10
7218;DHT22;3650;53.580;10.094;2023-05-10T08:11:07;17.40;32.70
7218;DHT22;3650;53.580;10.094;2023-05-10T08:13:34;17.40;31.60
7218;DHT22;3650;53.580;10.094;2023-05-10T08:16:01;17.50;31.40
7218;DHT22;3650;53.580;10.094;2023-05-10T08:18:29;17.50;31.20
7218;DHT22;3650;53.580;10.094;2023-05-10T08:20:56;17.50;31.60
7218;DHT22;3650;53.580;10.094;2023-05-10T08:23:22;17.50;31.20
7218;DHT22;3650;53.580;10.094;2023-05-10T08:25:49;17.50;31.30
7218;DHT22;3650;53.580;10.094;2023-05-10T08:28:16;17.50;31.20
7218;DHT22;3650;53.580;10.094;2023-05-10T08:30:43;17.60;31.30
7218;DHT22;3650;53.580;10.094;2023-05-10T08:33:09;17.60;31.30
7218;DHT22;3650;53.580;10.094;2023-05-10T08:35:37;17.60;31.30
7218;DHT22;3650;53.580;10.094;2023-05-10T08:38:04;17.60;31.50
7218;DHT22;3650;53.580;10.094;2023-05-10T08:40:31;17.60;31.30
7218;DHT22;3650;53.580;10.094;2023-05-10T08:43:03;17.60;31.30
7218;DHT22;3650;53.580;10.094;2023-05-10T08:45:33;17.60;31.50
7218;DHT22;3650;53.580;10.094;2023-05-10T08:48:01;17.70;31.50
7218;DHT22;3650;53.580;10.094;2023-05-10T08:50:29;17.70;31.40
7218;DHT22;3650;53.580;10.094;2023-05-10T08:53:00;17.70;31.40
7218;DHT22;3650;53.580;10.094;2023-05-10T08:55:28;17.70;31.40
7218;DHT22;3650;53.580;10.094;2023-05-10T08:57:56;17.70;31.50
7218;DHT22;3650;53.580;10.094;2023-05-10T09:00:23;17.80;31.50
7218;DHT22;3650;53.580;10.094;2023-05-10T09:02:50;17.80;32.50
7218;DHT22;3650;53.580;10.094;2023-05-10T09:05:17;17.80;34.40
7218;DHT22;3650;53.580;10.094;2023-05-10T09:07:44;17.80;32.60
7218;DHT22;3650;53.580;10.094;2023-05-10T09:10:13;17.80;32.50
7218;DHT22;3650;53.580;10.094;2023-05-10T09:12:41;17.90;32.60
7218;DHT22;3650;53.580;10.094;2023-05-10T09:15:09;17.90;32.50
7218;DHT22;3650;53.580;10.094;2023-05-10T09:17:37;17.90;32.40
7218;DHT22;3650;53.580;10.094;2023-05-10T09:20:06;17.90;33.10
7218;DHT22;3650;53.580;10.094;2023-05-10T09:22:33;17.90;32.20
7218;DHT22;3650;53.580;10.094;2023-05-10T09:25:05;17.90;32.30
7218;DHT22;3650;53.580;10.094;2023-05-10T09:27:33;18.00;32.70
7218;DHT22;3650;53.580;10.094;2023-05-10T09:30:00;18.00;32.80
7218;DHT22;3650;53.580;10.094;2023-05-10T09:32:36;18.00;32.80
7218;DHT22;3650;53.580;10.094;2023-05-10T09:35:10;18.00;33.40
7218;DHT22;3650;53.580;10.094;2023-05-10T09:37:39;18.10;34.20
7218;DHT22;3650;53.580;10.094;2023-05-10T09:40:10;18.10;33.50
7218;DHT22;3650;53.580;10.094;2023-05-10T09:42:41;18.00;33.40
7218;DHT22;3650;53.580;10.094;2023-05-10T09:45:09;18.10;33.50
7218;DHT22;3650;53.580;10.094;2023-05-10T09:47:36;18.10;33.40
7218;DHT22;3650;53.580;10.094;2023-05-10T09:50:03;18.10;33.50
7218;DHT22;3650;53.580;10.094;2023-05-10T09:52:30;18.10;33.80
7218;DHT22;3650;53.580;10.094;2023-05-10T09:54:57;18.10;33.60
7218;DHT22;3650;53.580;10.094;2023-05-10T09:57:24;18.10;33.60
7218;DHT22;3650;53.580;10.094;2023-05-10T09:59:53;18.10;33.90
7218;DHT22;3650;53.580;10.094;2023-05-10T10:02:21;18.10;33.90
7218;DHT22;3650;53.580;10.094;2023-05-10T10:04:49;18.10;34.30
7218;DHT22;3650;53.580;10.094;2023-05-10T10:07:22;18.00;34.70
7218;DHT22;3650;53.580;10.094;2023-05-10T10:09:51;18.10;36.30
7218;DHT22;3650;53.580;10.094;2023-05-10T10:12:18;18.10;35.70
7218;DHT22;3650;53.580;10.094;2023-05-10T10:14:46;18.00;36.40
7218;DHT22;3650;53.580;10.094;2023-05-10T10:17:16;18.00;38.00
7218;DHT22;3650;53.580;10.094;2023-05-10T10:19:43;18.00;39.40
7218;DHT22;3650;53.580;10.094;2023-05-10T10:22:11;18.00;40.70
7218;DHT22;3650;53.580;10.094;2023-05-10T10:24:38;17.90;42.40
7218;DHT22;3650;53.580;10.094;2023-05-10T10:27:16;17.90;43.50
7218;DHT22;3650;53.580;10.094;2023-05-10T10:29:52;17.90;44.20
7218;DHT22;3650;53.580;10.094;2023-05-10T10:32:30;17.80;45.80
7218;DHT22;3650;53.580;10.094;2023-05-10T10:34:59;17.80;47.60
7218;DHT22;3650;53.580;10.094;2023-05-10T10:37:42;17.80;49.00
7218;DHT22;3650;53.580;10.094;2023-05-10T10:40:26;17.80;50.10
7218;DHT22;3650;53.580;10.094;2023-05-10T10:42:53;17.70;50.90
7218;DHT22;3650;53.580;10.094;2023-05-10T10:45:21;17.70;52.40
7218;DHT22;3650;53.580;10.094;2023-05-10T10:47:56;17.70;53.10
7218;DHT22;3650;53.580;10.094;2023-05-10T10:50:44;17.60;53.00
7218;DHT22;3650;53.580;10.094;2023-05-10T10:53:12;17.60;53.00
7218;DHT22;3650;53.580;10.094;2023-05-10T10:55:46;17.60;54.10
7218;DHT22;3650;53.580;10.094;2023-05-10T10:58:28;17.50;55.10
7218;DHT22;3650;53.580;10.094;2023-05-10T11:01:12;17.50;56.20
7218;DHT22;3650;53.580;10.094;2023-05-10T11:03:54;17.50;56.20
7218;DHT22;3650;53.580;10.094;2023-05-10T11:06:29;17.50;56.20
7218;DHT22;3650;53.580;10.094;2023-05-10T11:08:56;17.40;56.10
7218;DHT22;3650;53.580;10.094;2023-05-10T11:11:23;17.30;57.90
7218;DHT22;3650;53.580;10.094;2023-05-10T11:13:51;17.30;58.40
7218;DHT22;3650;53.580;10.094;2023-05-10T11:16:19;17.30;59.40
7218;DHT22;3650;53.580;10.094;2023-05-10T11:18:58;17.30;61.20
7218;DHT22;3650;53.580;10.094;2023-05-10T11:21:25;17.30;62.50
7218;DHT22;3650;53.580;10.094;2023-05-10T11:23:53;17.30;62.10
7218;DHT22;3650;53.580;10.094;2023-05-10T11:26:23;17.30;62.30
7218;DHT22;3650;53.580;10.094;2023-05-10T11:28:52;17.20;62.70
7218;DHT22;3650;53.580;10.094;2023-05-10T11:31:20;17.20;63.80
7218;DHT22;3650;53.580;10.094;2023-05-10T11:33:50;17.30;65.10
7218;DHT22;3650;53.580;10.094;2023-05-10T11:36:19;17.30;65.80
7218;DHT22;3650;53.580;10.094;2023-05-10T11:38:47;17.20;65.70
7218;DHT22;3650;53.580;10.094;2023-05-10T11:41:16;17.20;65.50
7218;DHT22;3650;53.580;10.094;2023-05-10T11:43:46;17.20;65.50
7218;DHT22;3650;53.580;10.094;2023-05-10T11:46:14;17.20;65.60
7218;DHT22;3650;53.580;10.094;2023-05-10T11:48:42;17.20;66.30
7218;DHT22;3650;53.580;10.094;2023-05-10T11:51:10;17.20;66.60
7218;DHT22;3650;53.580;10.094;2023-05-10T11:53:38;17.20;67.00
7218;DHT22;3650;53.580;10.094;2023-05-10T11:56:06;17.20;66.60
7218;DHT22;3650;53.580;10.094;2023-05-10T11:58:34;17.20;66.50
7218;DHT22;3650;53.580;10.094;2023-05-10T12:01:01;17.20;67.50
7218;DHT22;3650;53.580;10.094;2023-05-10T12:03:29;17.20;68.10
7218;DHT22;3650;53.580;10.094;2023-05-10T12:05:56;17.20;69.00
7218;DHT22;3650;53.580;10.094;2023-05-10T12:08:25;17.20;69.40
7218;DHT22;3650;53.580;10.094;2023-05-10T12:11:04;17.20;69.90
7218;DHT22;3650;53.580;10.094;2023-05-10T12:13:31;17.30;72.80
7218;DHT22;3650;53.580;10.094;2023-05-10T12:15:59;17.20;75.90
7218;DHT22;3650;53.580;10.094;2023-05-10T12:18:26;17.30;77.80
7218;DHT22;3650;53.580;10.094;2023-05-10T12:20:53;17.30;77.30
7218;DHT22;3650;53.580;10.094;2023-05-10T12:23:20;17.30;75.90
7218;DHT22;3650;53.580;10.094;2023-05-10T12:25:47;17.20;74.50
7218;DHT22;3650;53.580;10.094;2023-05-10T12:28:19;17.30;76.20
7218;DHT22;3650;53.580;10.094;2023-05-10T12:30:46;17.30;75.60
7218;DHT22;3650;53.580;10.094;2023-05-10T12:33:13;17.30;75.00
7218;DHT22;3650;53.580;10.094;2023-05-10T12:35:46;17.20;76.20
7218;DHT22;3650;53.580;10.094;2023-05-10T12:38:26;17.20;79.60
7218;DHT22;3650;53.580;10.094;2023-05-10T12:40:55;17.20;81.00
7218;DHT22;3650;53.580;10.094;2023-05-10T12:43:23;17.20;79.60
7218;DHT22;3650;53.580;10.094;2023-05-10T12:45:50;17.20;79.60
7218;DHT22;3650;53.580;10.094;2023-05-10T12:48:17;17.20;79.60
7218;DHT22;3650;53.580;10.094;2023-05-10T12:50:43;17.20;79.60
7218;DHT22;3650;53.580;10.094;2023-05-10T12:53:10;17.20;80.50
7218;DHT22;3650;53.580;10.094;2023-05-10T12:55:38;17.20;82.50
7218;DHT22;3650;53.580;10.094;2023-05-10T12:58:05;17.30;84.10
7218;DHT22;3650;53.580;10.094;2023-05-10T13:00:33;17.30;85.40
7218;DHT22;3650;53.580;10.094;2023-05-10T13:03:00;17.30;86.20
7218;DHT22;3650;53.580;10.094;2023-05-10T13:05:27;17.40;86.70
7218;DHT22;3650;53.580;10.094;2023-05-10T13:07:54;17.40;87.00
7218;DHT22;3650;53.580;10.094;2023-05-10T13:10:20;17.50;87.30
7218;DHT22;3650;53.580;10.094;2023-05-10T13:12:49;17.50;86.90
7218;DHT22;3650;53.580;10.094;2023-05-10T13:15:15;17.50;83.40
7218;DHT22;3650;53.580;10.094;2023-05-10T13:17:43;17.50;83.90
7218;DHT22;3650;53.580;10.094;2023-05-10T13:20:11;17.50;85.20
7218;DHT22;3650;53.580;10.094;2023-05-10T13:22:37;17.60;86.10
7218;DHT22;3650;53.580;10.094;2023-05-10T13:25:05;17.60;86.40
7218;DHT22;3650;53.580;10.094;2023-05-10T13:27:32;17.60;85.80
7218;DHT22;3650;53.580;10.094;2023-05-10T13:29:58;17.60;85.60
7218;DHT22;3650;53.580;10.094;2023-05-10T13:32:25;17.70;85.30
7218;DHT22;3650;53.580;10.094;2023-05-10T13:34:54;17.70;85.70
7218;DHT22;3650;53.580;10.094;2023-05-10T13:37:20;17.80;86.70
7218;DHT22;3650;53.580;10.094;2023-05-10T13:39:47;17.80;88.10
7218;DHT22;3650;53.580;10.094;2023-05-10T13:42:14;17.80;88.50
7218;DHT22;3650;53.580;10.094;2023-05-10T13:44:41;17.90;87.60
7218;DHT22;3650;53.580;10.094;2023-05-10T13:47:08;17.90;87.10
7218;DHT22;3650;53.580;10.094;2023-05-10T13:49:35;18.00;87.50
7218;DHT22;3650;53.580;10.094;2023-05-10T13:52:03;18.00;88.60
7218;DHT22;3650;53.580;10.094;2023-05-10T13:54:32;18.10;89.60
7218;DHT22;3650;53.580;10.094;2023-05-10T13:56:59;18.10;89.00
7218;DHT22;3650;53.580;10.094;2023-05-10T13:59:26;18.10;86.90
7218;DHT22;3650;53.580;10.094;2023-05-10T14:01:53;18.10;85.00
7218;DHT22;3650;53.580;10.094;2023-05-10T14:04:19;18.10;84.10
7218;DHT22;3650;53.580;10.094;2023-05-10T14:06:46;18.10;83.10
7218;DHT22;3650;53.580;10.094;2023-05-10T14:09:14;18.10;83.50
7218;DHT22;3650;53.580;10.094;2023-05-10T14:11:41;18.10;82.80
7218;DHT22;3650;53.580;10.094;2023-05-10T14:14:10;18.10;82.00
7218;DHT22;3650;53.580;10.094;2023-05-10T14:16:38;18.10;82.00
7218;DHT22;3650;53.580;10.094;2023-05-10T14:19:04;18.20;82.30
7218;DHT22;3650;53.580;10.094;2023-05-10T14:21:31;18.20;81.50
7218;DHT22;3650;53.580;10.094;2023-05-10T14:23:58;18.20;80.50
7218;DHT22;3650;53.580;10.094;2023-05-10T14:26:27;18.10;79.40
7218;DHT22;3650;53.580;10.094;2023-05-10T14:28:53;18.20;79.50
7218;DHT22;3650;53.580;10.094;2023-05-10T14:31:20;18.10;79.60
7218;DHT22;3650;53.580;10.094;2023-05-10T14:33:48;18.10;79.20
7218;DHT22;3650;53.580;10.094;2023-05-10T14:36:15;18.20;79.70
7218;DHT22;3650;53.580;10.094;2023-05-10T14:38:42;18.10;80.40
7218;DHT22;3650;53.580;10.094;2023-05-10T14:41:08;18.20;81.30
7218;DHT22;3650;53.580;10.094;2023-05-10T14:43:40;18.20;82.20
7218;DHT22;3650;53.580;10.094;2023-05-10T14:46:07;18.20;81.20
7218;DHT22;3650;53.580;10.094;2023-05-10T14:48:34;18.20;80.00
7218;DHT22;3650;53.580;10.094;2023-05-10T14:51:01;18.20;78.80
7218;DHT22;3650;53.580;10.094;2023-05-10T14:53:29;18.20;78.60
7218;DHT22;3650;53.580;10.094;2023-05-10T14:55:55;18.20;79.10
7218;DHT22;3650;53.580;10.094;2023-05-10T14:58:22;18.20;80.50
7218;DHT22;3650;53.580;10.094;2023-05-10T15:00:51;18.20;80.50
7218;DHT22;3650;53.580;10.094;2023-05-10T15:03:17;18.20;79.80
7218;DHT22;3650;53.580;10.094;2023-05-10T15:05:44;18.20;78.00
7218;DHT22;3650;53.580;10.094;2023-05-10T15:08:11;18.20;77.70
7218;DHT22;3650;53.580;10.094;2023-05-10T15:10:38;18.20;78.10
7218;DHT22;3650;53.580;10.094;2023-05-10T15:13:04;18.20;78.10
7218;DHT22;3650;53.580;10.094;2023-05-10T15:15:31;18.20;78.20
7218;DHT22;3650;53.580;10.094;2023-05-10T15:17:59;18.20;79.00
7218;DHT22;3650;53.580;10.094;2023-05-10T15:20:26;18.20;80.50
7218;DHT22;3650;53.580;10.094;2023-05-10T15:22:53;18.30;81.90
7218;DHT22;3650;53.580;10.094;2023-05-10T15:25:20;18.30;82.30
7218;DHT22;3650;53.580;10.094;2023-05-10T15:27:48;18.30;80.60
7218;DHT22;3650;53.580;10.094;2023-05-10T15:30:14;18.30;79.80
7218;DHT22;3650;53.580;10.094;2023-05-10T15:32:41;18.30;78.80
7218;DHT22;3650;53.580;10.094;2023-05-10T15:35:10;18.30;78.40
7218;DHT22;3650;53.580;10.094;2023-05-10T15:37:36;18.40;78.90
7218;DHT22;3650;53.580;10.094;2023-05-10T15:40:04;18.40;79.50
7218;DHT22;3650;53.580;10.094;2023-05-10T15:42:31;18.40;80.40
7218;DHT22;3650;53.580;10.094;2023-05-10T15:44:58;18.40;79.60
7218;DHT22;3650;53.580;10.094;2023-05-10T15:47:25;18.40;79.00
7218;DHT22;3650;53.580;10.094;2023-05-10T15:49:53;18.40;77.60
7218;DHT22;3650;53.580;10.094;2023-05-10T15:52:21;18.40;77.00